sensor_id;sensor_type;location;lat;lon;timestamp;P1;durP1;ratioP1;P2;durP2;ratioP2
4450;SDS011;2238;50.180;9.230;2022-12-10T00:00:48;29.30;;;17.27;;
4450;SDS011;2238;50.180;9.230;2022-12-10T00:03:48;19.93;;;12.80;;
4450;SDS011;2238;50.180;9.230;2022-12-10T00:06:49;18.70;;;12.87;;
4450;SDS011;2238;50.180;9.230;2022-12-10T00:09:50;24.27;;;15.80;;
4450;SDS011;2238;50.180;9.230;2022-12-10T00:12:50;23.43;;;15.50;;
4450;SDS011;2238;50.180;9.230;2022-12-10T00:15:51;25.57;;;16.03;;
4450;SDS011;2238;50.180;9.230;2022-12-10T00:18:52;25.90;;;15.93;;
4450;SDS011;2238;50.180;9.230;2022-12-10T00:21:53;25.83;;;15.70;;
4450;SDS011;2238;50.180;9.230;2022-12-10T00:24:54;25.20;;;15.97;;
4450;SDS011;2238;50.180;9.230;2022-12-10T00:27:54;26.27;;;18.47;;
4450;SDS011;2238;50.180;9.230;2022-12-10T00:30:55;25.30;;;15.90;;
4450;SDS011;2238;50.180;9.230;2022-12-10T00:33:56;23.20;;;15.90;;
4450;SDS011;2238;50.180;9.230;2022-12-10T00:36:58;23.70;;;15.67;;
4450;SDS011;2238;50.180;9.230;2022-12-10T00:39:59;26.33;;;17.53;;
4450;SDS011;2238;50.180;9.230;2022-12-10T00:42:59;26.77;;;16.50;;
4450;SDS011;2238;50.180;9.230;2022-12-10T00:46:00;25.27;;;15.60;;
4450;SDS011;2238;50.180;9.230;2022-12-10T00:49:01;29.07;;;17.53;;
4450;SDS011;2238;50.180;9.230;2022-12-10T00:52:02;25.10;;;16.10;;
4450;SDS011;2238;50.180;9.230;2022-12-10T00:55:03;26.47;;;16.00;;
4450;SDS011;2238;50.180;9.230;2022-12-10T00:58:04;32.63;;;16.60;;
4450;SDS011;2238;50.180;9.230;2022-12-10T01:04:20;26.40;;;15.87;;
4450;SDS011;2238;50.180;9.230;2022-12-10T01:07:21;28.23;;;17.27;;
4450;SDS011;2238;50.180;9.230;2022-12-10T01:10:21;23.10;;;14.33;;
4450;SDS011;2238;50.180;9.230;2022-12-10T01:13:22;25.00;;;15.97;;
4450;SDS011;2238;50.180;9.230;2022-12-10T01:16:22;24.17;;;15.57;;
4450;SDS011;2238;50.180;9.230;2022-12-10T01:19:23;25.53;;;16.43;;
4450;SDS011;2238;50.180;9.230;2022-12-10T01:22:24;22.80;;;16.43;;
4450;SDS011;2238;50.180;9.230;2022-12-10T01:25:24;24.17;;;14.57;;
4450;SDS011;2238;50.180;9.230;2022-12-10T01:28:25;26.40;;;16.37;;
4450;SDS011;2238;50.180;9.230;2022-12-10T01:31:26;28.67;;;16.43;;
4450;SDS011;2238;50.180;9.230;2022-12-10T01:34:32;23.63;;;17.00;;
4450;SDS011;2238;50.180;9.230;2022-12-10T01:37:32;28.27;;;17.93;;
4450;SDS011;2238;50.180;9.230;2022-12-10T01:40:36;26.67;;;17.43;;
4450;SDS011;2238;50.180;9.230;2022-12-10T01:43:48;23.77;;;16.07;;
4450;SDS011;2238;50.180;9.230;2022-12-10T01:46:58;22.97;;;16.00;;
4450;SDS011;2238;50.180;9.230;2022-12-10T01:50:00;25.23;;;16.00;;
4450;SDS011;2238;50.180;9.230;2022-12-10T01:53:02;23.50;;;16.53;;
4450;SDS011;2238;50.180;9.230;2022-12-10T01:56:03;24.17;;;15.57;;
4450;SDS011;2238;50.180;9.230;2022-12-10T01:59:04;21.80;;;13.40;;
4450;SDS011;2238;50.180;9.230;2022-12-10T02:05:28;20.30;;;14.40;;
4450;SDS011;2238;50.180;9.230;2022-12-10T02:08:43;23.90;;;14.90;;
4450;SDS011;2238;50.180;9.230;2022-12-10T02:12:09;25.90;;;19.33;;
4450;SDS011;2238;50.180;9.230;2022-12-10T02:15:25;23.93;;;15.33;;
4450;SDS011;2238;50.180;9.230;2022-12-10T02:18:38;20.30;;;15.60;;
4450;SDS011;2238;50.180;9.230;2022-12-10T02:21:44;21.37;;;14.73;;
4450;SDS011;2238;50.180;9.230;2022-12-10T02:24:48;22.97;;;15.63;;
4450;SDS011;2238;50.180;9.230;2022-12-10T02:31:05;22.10;;;14.50;;
4450;SDS011;2238;50.180;9.230;2022-12-10T02:34:08;22.37;;;15.00;;
4450;SDS011;2238;50.180;9.230;2022-12-10T02:37:12;25.83;;;15.07;;
4450;SDS011;2238;50.180;9.230;2022-12-10T02:40:32;21.30;;;14.73;;
4450;SDS011;2238;50.180;9.230;2022-12-10T02:43:35;25.30;;;17.13;;
4450;SDS011;2238;50.180;9.230;2022-12-10T02:46:36;24.27;;;16.00;;
4450;SDS011;2238;50.180;9.230;2022-12-10T02:49:39;25.80;;;16.37;;
4450;SDS011;2238;50.180;9.230;2022-12-10T02:52:40;30.33;;;17.30;;
4450;SDS011;2238;50.180;9.230;2022-12-10T02:56:06;25.67;;;16.67;;
4450;SDS011;2238;50.180;9.230;2022-12-10T02:59:28;27.87;;;16.47;;
4450;SDS011;2238;50.180;9.230;2022-12-10T03:06:18;23.53;;;15.20;;
4450;SDS011;2238;50.180;9.230;2022-12-10T03:09:35;27.50;;;17.37;;
4450;SDS011;2238;50.180;9.230;2022-12-10T03:13:06;24.17;;;15.90;;
4450;SDS011;2238;50.180;9.230;2022-12-10T03:16:06;29.07;;;19.67;;
4450;SDS011;2238;50.180;9.230;2022-12-10T03:19:52;31.40;;;17.07;;
4450;SDS011;2238;50.180;9.230;2022-12-10T03:22:37;22.77;;;14.60;;
4450;SDS011;2238;50.180;9.230;2022-12-10T03:25:40;27.37;;;15.57;;
4450;SDS011;2238;50.180;9.230;2022-12-10T03:28:43;26.43;;;16.00;;
4450;SDS011;2238;50.180;9.230;2022-12-10T03:31:49;25.20;;;16.17;;
4450;SDS011;2238;50.180;9.230;2022-12-10T03:34:53;22.50;;;15.23;;
4450;SDS011;2238;50.180;9.230;2022-12-10T03:37:56;22.10;;;13.83;;
4450;SDS011;2238;50.180;9.230;2022-12-10T03:40:57;22.53;;;14.63;;
4450;SDS011;2238;50.180;9.230;2022-12-10T03:43:58;25.30;;;14.97;;
4450;SDS011;2238;50.180;9.230;2022-12-10T03:47:03;23.87;;;15.40;;
4450;SDS011;2238;50.180;9.230;2022-12-10T03:50:05;25.77;;;17.37;;
4450;SDS011;2238;50.180;9.230;2022-12-10T03:53:06;25.03;;;15.60;;
4450;SDS011;2238;50.180;9.230;2022-12-10T03:56:07;25.10;;;15.43;;
4450;SDS011;2238;50.180;9.230;2022-12-10T03:59:08;26.27;;;14.50;;
4450;SDS011;2238;50.180;9.230;2022-12-10T04:02:08;22.10;;;14.80;;
4450;SDS011;2238;50.180;9.230;2022-12-10T04:05:10;24.47;;;15.13;;
4450;SDS011;2238;50.180;9.230;2022-12-10T04:08:11;27.50;;;16.17;;
4450;SDS011;2238;50.180;9.230;2022-12-10T04:11:12;25.00;;;15.50;;
4450;SDS011;2238;50.180;9.230;2022-12-10T04:14:14;28.80;;;15.80;;
4450;SDS011;2238;50.180;9.230;2022-12-10T04:17:34;20.33;;;13.87;;
4450;SDS011;2238;50.180;9.230;2022-12-10T04:20:34;25.50;;;14.90;;
4450;SDS011;2238;50.180;9.230;2022-12-10T04:23:53;28.60;;;19.50;;
4450;SDS011;2238;50.180;9.230;2022-12-10T04:27:23;25.13;;;15.40;;
4450;SDS011;2238;50.180;9.230;2022-12-10T04:30:25;27.30;;;15.80;;
4450;SDS011;2238;50.180;9.230;2022-12-10T04:33:26;23.73;;;15.17;;
4450;SDS011;2238;50.180;9.230;2022-12-10T04:36:27;23.97;;;14.53;;
4450;SDS011;2238;50.180;9.230;2022-12-10T04:39:27;26.37;;;15.00;;
4450;SDS011;2238;50.180;9.230;2022-12-10T04:42:28;22.13;;;13.10;;
4450;SDS011;2238;50.180;9.230;2022-12-10T04:45:28;24.50;;;14.30;;
4450;SDS011;2238;50.180;9.230;2022-12-10T04:48:29;25.03;;;15.50;;
4450;SDS011;2238;50.180;9.230;2022-12-10T04:51:29;22.60;;;14.53;;
4450;SDS011;2238;50.180;9.230;2022-12-10T04:54:30;27.97;;;16.70;;
4450;SDS011;2238;50.180;9.230;2022-12-10T04:57:31;27.80;;;17.37;;
4450;SDS011;2238;50.180;9.230;2022-12-10T05:00:32;23.07;;;14.60;;
4450;SDS011;2238;50.180;9.230;2022-12-10T05:03:32;24.53;;;15.43;;
4450;SDS011;2238;50.180;9.230;2022-12-10T05:06:34;23.30;;;14.40;;
4450;SDS011;2238;50.180;9.230;2022-12-10T05:09:35;24.30;;;14.47;;
4450;SDS011;2238;50.180;9.230;2022-12-10T05:12:37;26.83;;;17.50;;
4450;SDS011;2238;50.180;9.230;2022-12-10T05:15:38;23.23;;;14.47;;
4450;SDS011;2238;50.180;9.230;2022-12-10T05:18:38;29.67;;;18.30;;
4450;SDS011;2238;50.180;9.230;2022-12-10T05:21:39;24.00;;;15.80;;
4450;SDS011;2238;50.180;9.230;2022-12-10T05:24:58;27.10;;;15.80;;
4450;SDS011;2238;50.180;9.230;2022-12-10T05:27:59;27.53;;;16.80;;
4450;SDS011;2238;50.180;9.230;2022-12-10T05:31:00;25.50;;;17.07;;
4450;SDS011;2238;50.180;9.230;2022-12-10T05:34:01;24.80;;;16.37;;
4450;SDS011;2238;50.180;9.230;2022-12-10T05:37:02;27.57;;;15.80;;
4450;SDS011;2238;50.180;9.230;2022-12-10T05:40:03;27.43;;;16.50;;
4450;SDS011;2238;50.180;9.230;2022-12-10T05:43:04;25.17;;;15.10;;
4450;SDS011;2238;50.180;9.230;2022-12-10T05:46:05;26.17;;;15.37;;
4450;SDS011;2238;50.180;9.230;2022-12-10T05:49:09;25.77;;;16.37;;
4450;SDS011;2238;50.180;9.230;2022-12-10T05:52:10;29.60;;;16.70;;
4450;SDS011;2238;50.180;9.230;2022-12-10T05:55:10;30.27;;;16.73;;
4450;SDS011;2238;50.180;9.230;2022-12-10T05:58:11;27.00;;;16.90;;
4450;SDS011;2238;50.180;9.230;2022-12-10T06:01:15;28.97;;;16.97;;
4450;SDS011;2238;50.180;9.230;2022-12-10T06:04:17;30.23;;;17.60;;
4450;SDS011;2238;50.180;9.230;2022-12-10T06:07:18;28.53;;;16.27;;
4450;SDS011;2238;50.180;9.230;2022-12-10T06:10:19;22.53;;;14.93;;
4450;SDS011;2238;50.180;9.230;2022-12-10T06:13:20;27.90;;;17.07;;
4450;SDS011;2238;50.180;9.230;2022-12-10T06:16:20;37.17;;;19.63;;
4450;SDS011;2238;50.180;9.230;2022-12-10T06:19:21;31.40;;;19.73;;
4450;SDS011;2238;50.180;9.230;2022-12-10T06:22:22;29.20;;;17.73;;
4450;SDS011;2238;50.180;9.230;2022-12-10T06:25:22;35.70;;;22.40;;
4450;SDS011;2238;50.180;9.230;2022-12-10T06:28:23;28.50;;;19.17;;
4450;SDS011;2238;50.180;9.230;2022-12-10T06:31:24;27.23;;;18.37;;
4450;SDS011;2238;50.180;9.230;2022-12-10T06:34:25;29.93;;;19.30;;
4450;SDS011;2238;50.180;9.230;2022-12-10T06:37:25;24.90;;;17.60;;
4450;SDS011;2238;50.180;9.230;2022-12-10T06:40:26;29.73;;;20.07;;
4450;SDS011;2238;50.180;9.230;2022-12-10T06:43:29;31.97;;;19.27;;
4450;SDS011;2238;50.180;9.230;2022-12-10T06:46:30;28.50;;;18.87;;
4450;SDS011;2238;50.180;9.230;2022-12-10T06:49:30;29.93;;;18.20;;
4450;SDS011;2238;50.180;9.230;2022-12-10T06:52:31;30.63;;;19.10;;
4450;SDS011;2238;50.180;9.230;2022-12-10T06:55:32;34.23;;;20.17;;
4450;SDS011;2238;50.180;9.230;2022-12-10T06:58:33;35.60;;;19.40;;
4450;SDS011;2238;50.180;9.230;2022-12-10T07:01:34;30.73;;;19.43;;
4450;SDS011;2238;50.180;9.230;2022-12-10T07:04:34;33.97;;;20.40;;
4450;SDS011;2238;50.180;9.230;2022-12-10T07:07:35;34.03;;;22.27;;
4450;SDS011;2238;50.180;9.230;2022-12-10T07:10:37;33.40;;;21.13;;
4450;SDS011;2238;50.180;9.230;2022-12-10T07:13:37;38.70;;;24.90;;
4450;SDS011;2238;50.180;9.230;2022-12-10T07:16:38;67.43;;;38.00;;
4450;SDS011;2238;50.180;9.230;2022-12-10T07:19:39;43.30;;;24.80;;
4450;SDS011;2238;50.180;9.230;2022-12-10T07:22:39;41.40;;;23.63;;
4450;SDS011;2238;50.180;9.230;2022-12-10T07:25:40;45.20;;;28.83;;
4450;SDS011;2238;50.180;9.230;2022-12-10T07:28:40;42.73;;;23.77;;
4450;SDS011;2238;50.180;9.230;2022-12-10T07:31:41;34.20;;;21.70;;
4450;SDS011;2238;50.180;9.230;2022-12-10T07:34:42;33.90;;;21.30;;
4450;SDS011;2238;50.180;9.230;2022-12-10T07:37:42;36.83;;;22.90;;
4450;SDS011;2238;50.180;9.230;2022-12-10T07:40:43;38.00;;;24.30;;
4450;SDS011;2238;50.180;9.230;2022-12-10T07:43:43;35.07;;;22.23;;
4450;SDS011;2238;50.180;9.230;2022-12-10T07:46:45;38.70;;;25.23;;
4450;SDS011;2238;50.180;9.230;2022-12-10T07:49:46;42.20;;;25.97;;
4450;SDS011;2238;50.180;9.230;2022-12-10T07:52:46;40.23;;;25.37;;
4450;SDS011;2238;50.180;9.230;2022-12-10T07:55:47;36.87;;;24.37;;
4450;SDS011;2238;50.180;9.230;2022-12-10T07:58:47;41.93;;;25.07;;
4450;SDS011;2238;50.180;9.230;2022-12-10T08:01:48;42.90;;;26.57;;
4450;SDS011;2238;50.180;9.230;2022-12-10T08:04:49;40.00;;;26.97;;
4450;SDS011;2238;50.180;9.230;2022-12-10T08:07:50;38.90;;;25.00;;
4450;SDS011;2238;50.180;9.230;2022-12-10T08:10:50;44.00;;;28.27;;
4450;SDS011;2238;50.180;9.230;2022-12-10T08:13:51;44.27;;;29.47;;
4450;SDS011;2238;50.180;9.230;2022-12-10T08:16:53;48.77;;;32.10;;
4450;SDS011;2238;50.180;9.230;2022-12-10T08:19:53;38.20;;;23.03;;
4450;SDS011;2238;50.180;9.230;2022-12-10T08:22:54;36.77;;;24.17;;
4450;SDS011;2238;50.180;9.230;2022-12-10T08:25:55;38.33;;;24.70;;
4450;SDS011;2238;50.180;9.230;2022-12-10T08:28:56;42.90;;;27.37;;
4450;SDS011;2238;50.180;9.230;2022-12-10T08:31:57;43.17;;;25.97;;
4450;SDS011;2238;50.180;9.230;2022-12-10T08:34:58;49.20;;;29.10;;
4450;SDS011;2238;50.180;9.230;2022-12-10T08:37:58;43.03;;;29.67;;
4450;SDS011;2238;50.180;9.230;2022-12-10T08:40:59;50.33;;;32.63;;
4450;SDS011;2238;50.180;9.230;2022-12-10T08:44:09;38.33;;;24.83;;
4450;SDS011;2238;50.180;9.230;2022-12-10T08:47:10;45.27;;;26.67;;
4450;SDS011;2238;50.180;9.230;2022-12-10T08:50:11;42.87;;;25.00;;
4450;SDS011;2238;50.180;9.230;2022-12-10T08:53:12;39.07;;;23.37;;
4450;SDS011;2238;50.180;9.230;2022-12-10T08:56:12;39.70;;;25.10;;
4450;SDS011;2238;50.180;9.230;2022-12-10T08:59:13;42.90;;;26.40;;
4450;SDS011;2238;50.180;9.230;2022-12-10T09:02:14;47.50;;;31.60;;
4450;SDS011;2238;50.180;9.230;2022-12-10T09:05:14;54.03;;;33.37;;
4450;SDS011;2238;50.180;9.230;2022-12-10T09:08:15;46.17;;;30.60;;
4450;SDS011;2238;50.180;9.230;2022-12-10T09:11:20;48.07;;;30.10;;
4450;SDS011;2238;50.180;9.230;2022-12-10T09:14:28;40.33;;;26.80;;
4450;SDS011;2238;50.180;9.230;2022-12-10T09:17:28;37.03;;;24.90;;
4450;SDS011;2238;50.180;9.230;2022-12-10T09:20:29;39.63;;;24.60;;
4450;SDS011;2238;50.180;9.230;2022-12-10T09:23:30;40.73;;;23.33;;
4450;SDS011;2238;50.180;9.230;2022-12-10T09:26:30;44.60;;;25.80;;
4450;SDS011;2238;50.180;9.230;2022-12-10T09:29:31;40.43;;;22.37;;
4450;SDS011;2238;50.180;9.230;2022-12-10T09:32:32;39.40;;;23.43;;
4450;SDS011;2238;50.180;9.230;2022-12-10T09:35:32;45.07;;;24.03;;
4450;SDS011;2238;50.180;9.230;2022-12-10T09:38:34;39.87;;;24.17;;
4450;SDS011;2238;50.180;9.230;2022-12-10T09:41:56;42.13;;;23.87;;
4450;SDS011;2238;50.180;9.230;2022-12-10T09:48:22;38.67;;;22.83;;
4450;SDS011;2238;50.180;9.230;2022-12-10T09:51:31;38.40;;;22.67;;
4450;SDS011;2238;50.180;9.230;2022-12-10T09:58:02;48.23;;;25.67;;
4450;SDS011;2238;50.180;9.230;2022-12-10T10:01:05;54.50;;;30.17;;
4450;SDS011;2238;50.180;9.230;2022-12-10T10:04:12;47.87;;;26.07;;
4450;SDS011;2238;50.180;9.230;2022-12-10T10:07:17;46.50;;;25.80;;
4450;SDS011;2238;50.180;9.230;2022-12-10T10:13:38;42.27;;;22.13;;
4450;SDS011;2238;50.180;9.230;2022-12-10T10:16:49;44.53;;;25.00;;
4450;SDS011;2238;50.180;9.230;2022-12-10T10:19:54;38.03;;;22.53;;
4450;SDS011;2238;50.180;9.230;2022-12-10T10:22:55;41.70;;;22.90;;
4450;SDS011;2238;50.180;9.230;2022-12-10T10:25:58;42.17;;;22.80;;
4450;SDS011;2238;50.180;9.230;2022-12-10T10:29:00;44.73;;;25.13;;
4450;SDS011;2238;50.180;9.230;2022-12-10T10:52:45;47.87;;;26.87;;
4450;SDS011;2238;50.180;9.230;2022-12-10T10:55:46;50.77;;;26.00;;
4450;SDS011;2238;50.180;9.230;2022-12-10T10:58:52;60.90;;;27.13;;
4450;SDS011;2238;50.180;9.230;2022-12-10T11:01:54;54.23;;;27.90;;
4450;SDS011;2238;50.180;9.230;2022-12-10T11:05:03;48.30;;;26.00;;
4450;SDS011;2238;50.180;9.230;2022-12-10T11:08:17;48.37;;;28.33;;
4450;SDS011;2238;50.180;9.230;2022-12-10T11:11:20;40.50;;;23.30;;
4450;SDS011;2238;50.180;9.230;2022-12-10T11:14:43;46.23;;;25.10;;
4450;SDS011;2238;50.180;9.230;2022-12-10T11:17:46;48.97;;;27.60;;
4450;SDS011;2238;50.180;9.230;2022-12-10T11:24:24;46.03;;;24.77;;
4450;SDS011;2238;50.180;9.230;2022-12-10T11:44:42;47.37;;;24.80;;
4450;SDS011;2238;50.180;9.230;2022-12-10T12:04:39;49.17;;;27.87;;
4450;SDS011;2238;50.180;9.230;2022-12-10T12:07:25;46.93;;;27.00;;
4450;SDS011;2238;50.180;9.230;2022-12-10T12:17:15;54.20;;;29.63;;
4450;SDS011;2238;50.180;9.230;2022-12-10T12:20:30;54.97;;;30.43;;
4450;SDS011;2238;50.180;9.230;2022-12-10T12:26:45;54.40;;;31.30;;
4450;SDS011;2238;50.180;9.230;2022-12-10T12:30:03;59.00;;;31.87;;
4450;SDS011;2238;50.180;9.230;2022-12-10T12:33:11;50.70;;;28.07;;
4450;SDS011;2238;50.180;9.230;2022-12-10T12:36:21;47.23;;;27.00;;
4450;SDS011;2238;50.180;9.230;2022-12-10T12:42:54;50.30;;;29.20;;
4450;SDS011;2238;50.180;9.230;2022-12-10T12:45:58;51.90;;;29.10;;
4450;SDS011;2238;50.180;9.230;2022-12-10T12:59:19;53.93;;;31.40;;
4450;SDS011;2238;50.180;9.230;2022-12-10T13:06:16;55.43;;;32.67;;
4450;SDS011;2238;50.180;9.230;2022-12-10T13:09:25;54.57;;;33.47;;
4450;SDS011;2238;50.180;9.230;2022-12-10T13:12:28;52.53;;;30.63;;
4450;SDS011;2238;50.180;9.230;2022-12-10T13:15:44;43.70;;;27.53;;
4450;SDS011;2238;50.180;9.230;2022-12-10T13:18:45;43.03;;;31.27;;
4450;SDS011;2238;50.180;9.230;2022-12-10T13:25:38;46.90;;;27.17;;
4450;SDS011;2238;50.180;9.230;2022-12-10T13:35:30;52.97;;;32.73;;
4450;SDS011;2238;50.180;9.230;2022-12-10T13:38:38;52.60;;;33.03;;
4450;SDS011;2238;50.180;9.230;2022-12-10T13:45:29;48.60;;;30.07;;
4450;SDS011;2238;50.180;9.230;2022-12-10T13:48:32;46.20;;;28.90;;
4450;SDS011;2238;50.180;9.230;2022-12-10T13:58:33;44.27;;;25.93;;
4450;SDS011;2238;50.180;9.230;2022-12-10T14:02:24;45.93;;;26.77;;
4450;SDS011;2238;50.180;9.230;2022-12-10T14:08:41;43.63;;;25.37;;
4450;SDS011;2238;50.180;9.230;2022-12-10T14:12:04;36.23;;;22.90;;
4450;SDS011;2238;50.180;9.230;2022-12-10T14:15:18;36.10;;;23.10;;
4450;SDS011;2238;50.180;9.230;2022-12-10T14:18:22;51.50;;;34.33;;
4450;SDS011;2238;50.180;9.230;2022-12-10T14:21:23;52.63;;;32.43;;
4450;SDS011;2238;50.180;9.230;2022-12-10T14:27:37;59.90;;;32.13;;
4450;SDS011;2238;50.180;9.230;2022-12-10T14:30:40;57.97;;;34.43;;
4450;SDS011;2238;50.180;9.230;2022-12-10T14:33:43;51.93;;;31.17;;
4450;SDS011;2238;50.180;9.230;2022-12-10T14:36:46;45.83;;;28.77;;
4450;SDS011;2238;50.180;9.230;2022-12-10T14:39:52;46.83;;;30.80;;
4450;SDS011;2238;50.180;9.230;2022-12-10T14:43:02;41.13;;;25.60;;
4450;SDS011;2238;50.180;9.230;2022-12-10T14:46:23;37.57;;;24.00;;
4450;SDS011;2238;50.180;9.230;2022-12-10T14:49:27;48.40;;;29.97;;
4450;SDS011;2238;50.180;9.230;2022-12-10T14:52:31;49.80;;;26.47;;
4450;SDS011;2238;50.180;9.230;2022-12-10T14:55:35;39.50;;;24.53;;
4450;SDS011;2238;50.180;9.230;2022-12-10T14:58:38;39.10;;;23.70;;
4450;SDS011;2238;50.180;9.230;2022-12-10T15:01:40;36.43;;;22.67;;
4450;SDS011;2238;50.180;9.230;2022-12-10T15:04:45;36.67;;;21.63;;
4450;SDS011;2238;50.180;9.230;2022-12-10T15:08:20;33.07;;;21.43;;
4450;SDS011;2238;50.180;9.230;2022-12-10T15:11:19;32.60;;;20.37;;
4450;SDS011;2238;50.180;9.230;2022-12-10T15:14:20;32.00;;;19.40;;
4450;SDS011;2238;50.180;9.230;2022-12-10T15:17:43;38.27;;;23.73;;
4450;SDS011;2238;50.180;9.230;2022-12-10T15:20:54;38.00;;;24.30;;
4450;SDS011;2238;50.180;9.230;2022-12-10T15:27:23;38.30;;;25.33;;
4450;SDS011;2238;50.180;9.230;2022-12-10T15:30:38;33.07;;;23.00;;
4450;SDS011;2238;50.180;9.230;2022-12-10T15:33:43;35.67;;;23.97;;
4450;SDS011;2238;50.180;9.230;2022-12-10T15:36:48;41.03;;;22.70;;
4450;SDS011;2238;50.180;9.230;2022-12-10T15:39:56;37.37;;;22.20;;
4450;SDS011;2238;50.180;9.230;2022-12-10T15:46:25;38.17;;;25.17;;
4450;SDS011;2238;50.180;9.230;2022-12-10T15:49:26;39.57;;;26.67;;
4450;SDS011;2238;50.180;9.230;2022-12-10T15:52:28;63.67;;;41.60;;
4450;SDS011;2238;50.180;9.230;2022-12-10T15:55:29;35.33;;;23.27;;
4450;SDS011;2238;50.180;9.230;2022-12-10T15:58:30;38.30;;;23.37;;
4450;SDS011;2238;50.180;9.230;2022-12-10T16:01:30;35.00;;;20.80;;
4450;SDS011;2238;50.180;9.230;2022-12-10T16:04:31;36.27;;;23.50;;
4450;SDS011;2238;50.180;9.230;2022-12-10T16:07:31;38.00;;;22.40;;
4450;SDS011;2238;50.180;9.230;2022-12-10T16:10:32;39.33;;;22.57;;
4450;SDS011;2238;50.180;9.230;2022-12-10T16:13:34;32.80;;;21.73;;
4450;SDS011;2238;50.180;9.230;2022-12-10T16:16:36;32.20;;;20.67;;
4450;SDS011;2238;50.180;9.230;2022-12-10T16:19:37;31.33;;;19.80;;
4450;SDS011;2238;50.180;9.230;2022-12-10T16:22:38;36.47;;;22.60;;
4450;SDS011;2238;50.180;9.230;2022-12-10T16:25:39;38.47;;;21.37;;
4450;SDS011;2238;50.180;9.230;2022-12-10T16:28:45;36.83;;;23.93;;
4450;SDS011;2238;50.180;9.230;2022-12-10T16:31:47;42.83;;;23.87;;
4450;SDS011;2238;50.180;9.230;2022-12-10T16:34:47;36.03;;;22.53;;
4450;SDS011;2238;50.180;9.230;2022-12-10T16:37:48;32.13;;;20.43;;
4450;SDS011;2238;50.180;9.230;2022-12-10T16:40:54;35.10;;;20.93;;
4450;SDS011;2238;50.180;9.230;2022-12-10T16:43:55;32.37;;;20.50;;
4450;SDS011;2238;50.180;9.230;2022-12-10T16:46:57;35.87;;;22.07;;
4450;SDS011;2238;50.180;9.230;2022-12-10T16:49:58;33.63;;;20.83;;
4450;SDS011;2238;50.180;9.230;2022-12-10T16:53:01;36.87;;;24.20;;
4450;SDS011;2238;50.180;9.230;2022-12-10T16:56:13;33.37;;;22.17;;
4450;SDS011;2238;50.180;9.230;2022-12-10T16:59:14;37.10;;;24.60;;
4450;SDS011;2238;50.180;9.230;2022-12-10T17:02:15;35.00;;;21.40;;
4450;SDS011;2238;50.180;9.230;2022-12-10T17:08:28;30.63;;;20.20;;
4450;SDS011;2238;50.180;9.230;2022-12-10T17:11:32;32.07;;;19.70;;
4450;SDS011;2238;50.180;9.230;2022-12-10T17:14:50;33.10;;;20.97;;
4450;SDS011;2238;50.180;9.230;2022-12-10T17:17:50;36.00;;;22.40;;
4450;SDS011;2238;50.180;9.230;2022-12-10T17:20:51;28.23;;;19.20;;
4450;SDS011;2238;50.180;9.230;2022-12-10T17:23:52;30.67;;;21.10;;
4450;SDS011;2238;50.180;9.230;2022-12-10T17:26:52;32.47;;;21.03;;
4450;SDS011;2238;50.180;9.230;2022-12-10T17:29:55;34.17;;;21.03;;
4450;SDS011;2238;50.180;9.230;2022-12-10T17:32:56;32.03;;;19.93;;
4450;SDS011;2238;50.180;9.230;2022-12-10T17:35:57;32.80;;;23.47;;
4450;SDS011;2238;50.180;9.230;2022-12-10T17:38:58;32.07;;;19.80;;
4450;SDS011;2238;50.180;9.230;2022-12-10T17:41:58;32.13;;;19.40;;
4450;SDS011;2238;50.180;9.230;2022-12-10T17:44:59;28.73;;;18.17;;
4450;SDS011;2238;50.180;9.230;2022-12-10T17:48:01;30.87;;;18.20;;
4450;SDS011;2238;50.180;9.230;2022-12-10T17:51:01;32.43;;;18.40;;
4450;SDS011;2238;50.180;9.230;2022-12-10T17:54:02;31.07;;;18.90;;
4450;SDS011;2238;50.180;9.230;2022-12-10T17:57:04;32.83;;;20.70;;
4450;SDS011;2238;50.180;9.230;2022-12-10T18:00:12;25.00;;;16.90;;
4450;SDS011;2238;50.180;9.230;2022-12-10T18:03:16;25.53;;;17.70;;
4450;SDS011;2238;50.180;9.230;2022-12-10T18:09:19;37.03;;;23.40;;
4450;SDS011;2238;50.180;9.230;2022-12-10T18:12:20;34.97;;;23.07;;
4450;SDS011;2238;50.180;9.230;2022-12-10T18:15:22;36.27;;;23.20;;
4450;SDS011;2238;50.180;9.230;2022-12-10T18:18:23;35.73;;;22.97;;
4450;SDS011;2238;50.180;9.230;2022-12-10T18:21:24;33.10;;;23.23;;
4450;SDS011;2238;50.180;9.230;2022-12-10T18:24:25;29.03;;;19.10;;
4450;SDS011;2238;50.180;9.230;2022-12-10T18:27:26;27.57;;;18.13;;
4450;SDS011;2238;50.180;9.230;2022-12-10T18:30:27;29.17;;;20.03;;
4450;SDS011;2238;50.180;9.230;2022-12-10T18:33:35;29.33;;;20.30;;
4450;SDS011;2238;50.180;9.230;2022-12-10T18:36:38;25.33;;;18.77;;
4450;SDS011;2238;50.180;9.230;2022-12-10T18:39:40;28.13;;;18.80;;
4450;SDS011;2238;50.180;9.230;2022-12-10T18:42:41;23.87;;;17.43;;
4450;SDS011;2238;50.180;9.230;2022-12-10T18:45:41;27.60;;;17.53;;
4450;SDS011;2238;50.180;9.230;2022-12-10T18:48:42;24.20;;;16.20;;
4450;SDS011;2238;50.180;9.230;2022-12-10T18:51:43;23.43;;;16.97;;
4450;SDS011;2238;50.180;9.230;2022-12-10T18:54:44;24.53;;;16.80;;
4450;SDS011;2238;50.180;9.230;2022-12-10T18:57:44;28.13;;;19.17;;
4450;SDS011;2238;50.180;9.230;2022-12-10T19:00:45;37.40;;;26.70;;
4450;SDS011;2238;50.180;9.230;2022-12-10T19:03:46;43.23;;;28.73;;
4450;SDS011;2238;50.180;9.230;2022-12-10T19:06:47;31.43;;;21.60;;
4450;SDS011;2238;50.180;9.230;2022-12-10T19:09:47;40.03;;;25.50;;
4450;SDS011;2238;50.180;9.230;2022-12-10T19:12:49;33.93;;;22.37;;
4450;SDS011;2238;50.180;9.230;2022-12-10T19:15:50;28.10;;;20.47;;
4450;SDS011;2238;50.180;9.230;2022-12-10T19:18:51;35.47;;;24.10;;
4450;SDS011;2238;50.180;9.230;2022-12-10T19:21:53;29.00;;;17.70;;
4450;SDS011;2238;50.180;9.230;2022-12-10T19:24:53;25.53;;;19.20;;
4450;SDS011;2238;50.180;9.230;2022-12-10T19:27:54;28.93;;;19.33;;
4450;SDS011;2238;50.180;9.230;2022-12-10T19:30:54;31.60;;;21.37;;
4450;SDS011;2238;50.180;9.230;2022-12-10T19:33:55;29.93;;;18.70;;
4450;SDS011;2238;50.180;9.230;2022-12-10T19:36:56;26.47;;;19.07;;
4450;SDS011;2238;50.180;9.230;2022-12-10T19:39:56;28.00;;;17.83;;
4450;SDS011;2238;50.180;9.230;2022-12-10T19:42:57;25.23;;;17.20;;
4450;SDS011;2238;50.180;9.230;2022-12-10T19:45:58;35.33;;;22.43;;
4450;SDS011;2238;50.180;9.230;2022-12-10T19:48:58;30.27;;;19.93;;
4450;SDS011;2238;50.180;9.230;2022-12-10T19:51:59;29.90;;;19.97;;
4450;SDS011;2238;50.180;9.230;2022-12-10T19:55:00;26.60;;;19.60;;
4450;SDS011;2238;50.180;9.230;2022-12-10T19:58:00;33.67;;;23.60;;
4450;SDS011;2238;50.180;9.230;2022-12-10T20:01:01;32.60;;;24.77;;
4450;SDS011;2238;50.180;9.230;2022-12-10T20:04:06;25.57;;;17.67;;
4450;SDS011;2238;50.180;9.230;2022-12-10T20:07:08;29.70;;;18.80;;
4450;SDS011;2238;50.180;9.230;2022-12-10T20:10:21;27.40;;;18.83;;
4450;SDS011;2238;50.180;9.230;2022-12-10T20:13:23;32.27;;;21.20;;
4450;SDS011;2238;50.180;9.230;2022-12-10T20:16:25;39.80;;;24.53;;
4450;SDS011;2238;50.180;9.230;2022-12-10T20:19:28;44.17;;;27.90;;
4450;SDS011;2238;50.180;9.230;2022-12-10T20:22:28;33.60;;;21.83;;
4450;SDS011;2238;50.180;9.230;2022-12-10T20:25:29;32.70;;;22.73;;
4450;SDS011;2238;50.180;9.230;2022-12-10T20:28:30;33.63;;;20.33;;
4450;SDS011;2238;50.180;9.230;2022-12-10T20:31:30;31.73;;;20.60;;
4450;SDS011;2238;50.180;9.230;2022-12-10T20:34:31;32.07;;;23.07;;
4450;SDS011;2238;50.180;9.230;2022-12-10T20:37:31;43.10;;;27.53;;
4450;SDS011;2238;50.180;9.230;2022-12-10T20:40:32;37.30;;;27.23;;
4450;SDS011;2238;50.180;9.230;2022-12-10T20:43:32;36.37;;;24.17;;
4450;SDS011;2238;50.180;9.230;2022-12-10T20:46:34;35.73;;;23.90;;
4450;SDS011;2238;50.180;9.230;2022-12-10T20:49:35;46.63;;;34.00;;
4450;SDS011;2238;50.180;9.230;2022-12-10T20:52:36;34.70;;;21.03;;
4450;SDS011;2238;50.180;9.230;2022-12-10T20:55:37;33.67;;;21.13;;